Time;durP1;ratioP1;P1;durP2;ratioP2;P2;SDS_P1;SDS_P2;PMS_P1;PMS_P2;Temp;Humidity;BMP_temperature;BMP_pressure;BME280_temperature;BME280_humidity;BME280_pressure;Samples;Min_cycle;Max_cycle;Signal;HPM_P1;HPM_P2
2023/09/18 00:00:45;;;;;;;3.22;2.00;;;;;;;14.95;100.00;92658.81;2101193;28;20104;-81
2023/09/18 00:01:56;;;;;;;4.07;2.00;;;;;;;14.95;100.00;92656.13;2099702;28;20430;-81
2023/09/18 00:03:09;;;;;;;3.78;1.90;;;;;;;15.11;100.00;92658.44;2098853;28;20114;-82
2023/09/18 00:04:24;;;;;;;4.05;2.00;;;;;;;15.01;100.00;92653.53;2092112;28;20032;-83
2023/09/18 00:05:34;;;;;;;2.65;1.92;;;;;;;15.05;100.00;92654.88;2108266;28;20038;-83
2023/09/18 00:06:48;;;;;;;2.85;1.90;;;;;;;15.07;100.00;92646.34;2098808;28;20067;-83
2023/09/18 00:08:04;;;;;;;3.72;1.85;;;;;;;15.03;100.00;92648.47;2093064;28;20555;-83
2023/09/18 00:09:16;;;;;;;2.80;1.70;;;;;;;15.00;100.00;92657.44;2093583;28;20036;-82
2023/09/18 00:10:30;;;;;;;2.45;2.00;;;;;;;14.97;100.00;92661.81;2091136;28;20116;-82
2023/09/18 00:11:41;;;;;;;3.70;1.77;;;;;;;14.94;100.00;92670.03;2104435;28;20099;-83
2023/09/18 00:12:54;;;;;;;2.90;2.00;;;;;;;15.05;100.00;92660.25;2099109;28;20028;-82
2023/09/18 00:14:09;;;;;;;2.10;1.90;;;;;;;15.08;100.00;92666.69;2099699;28;20044;-82
2023/09/18 00:15:23;;;;;;;2.22;1.85;;;;;;;15.14;100.00;92670.25;2093434;28;20032;-82
2023/09/18 00:16:35;;;;;;;2.40;1.88;;;;;;;15.11;100.00;92673.84;2092964;28;20024;-81
2023/09/18 00:17:46;;;;;;;1.92;1.40;;;;;;;15.07;100.00;92667.88;2092897;28;20417;-82
2023/09/18 00:18:58;;;;;;;3.45;2.00;;;;;;;15.11;100.00;92663.84;2092360;28;20140;-83
2023/09/18 00:20:13;;;;;;;2.25;2.05;;;;;;;15.22;100.00;92673.34;2100940;28;20515;-82
2023/09/18 00:21:25;;;;;;;3.78;2.13;;;;;;;15.23;100.00;92669.44;2099773;28;20024;-80
2023/09/18 00:22:37;;;;;;;2.42;1.75;;;;;;;15.20;100.00;92673.81;2092651;28;20143;-81
2023/09/18 00:23:49;;;;;;;2.33;1.80;;;;;;;15.22;100.00;92673.34;2092749;28;20116;-82
2023/09/18 00:25:06;;;;;;;3.45;1.83;;;;;;;15.35;100.00;92665.81;2100911;28;20020;-81
2023/09/18 00:26:19;;;;;;;2.83;1.85;;;;;;;15.37;100.00;92671.50;2099658;28;20117;-81
2023/09/18 00:27:30;;;;;;;6.45;2.45;;;;;;;15.43;100.00;92658.16;2101286;28;20027;-82
2023/09/18 00:28:41;;;;;;;3.08;1.90;;;;;;;15.43;100.00;92658.88;2090766;28;20048;-82
2023/09/18 00:29:56;;;;;;;3.22;1.50;;;;;;;15.46;100.00;92670.72;2089371;28;20065;-82
2023/09/18 00:31:09;;;;;;;2.38;1.77;;;;;;;15.44;100.00;92652.28;2101549;28;20032;-82
2023/09/18 00:32:22;;;;;;;2.50;1.73;;;;;;;15.44;100.00;92656.94;2104211;28;20024;-83
2023/09/18 00:33:41;;;;;;;3.30;2.10;;;;;;;15.56;100.00;92653.28;2104724;28;20059;-81
2023/09/18 00:35:01;;;;;;;3.05;1.55;;;;;;;15.63;100.00;92652.94;2097142;28;20020;-81
2023/09/18 00:36:13;;;;;;;2.45;2.08;;;;;;;15.59;100.00;92655.06;2094732;28;20097;-82
2023/09/18 00:37:25;;;;;;;2.22;1.70;;;;;;;15.54;100.00;92658.38;2100730;28;20047;-81
2023/09/18 00:38:36;;;;;;;2.83;1.65;;;;;;;15.62;100.00;92656.81;2099344;28;20073;-81
2023/09/18 00:39:48;;;;;;;3.88;1.92;;;;;;;15.59;100.00;92666.59;2106820;28;20419;-83
2023/09/18 00:41:02;;;;;;;1.67;1.58;;;;;;;15.77;100.00;92662.31;2098870;28;20052;-83
2023/09/18 00:42:17;;;;;;;2.97;1.85;;;;;;;15.89;100.00;92676.75;2099453;28;20123;-81
2023/09/18 00:43:43;;;;;;;2.03;1.80;;;;;;;15.82;100.00;92697.44;2099447;28;20051;-82
2023/09/18 00:44:56;;;;;;;3.60;1.70;;;;;;;15.80;100.00;92696.41;2100858;28;20041;-81
2023/09/18 00:46:08;;;;;;;4.97;1.70;;;;;;;15.89;100.00;92693.66;2105958;28;20089;-81
2023/09/18 00:47:23;;;;;;;2.97;1.95;;;;;;;15.95;100.00;92661.44;2092491;28;20024;-82
2023/09/18 00:48:36;;;;;;;3.75;1.73;;;;;;;16.09;100.00;92650.69;2093791;28;20017;-83
2023/09/18 00:49:50;;;;;;;4.78;1.83;;;;;;;16.20;100.00;92638.59;2100734;28;20024;-82
2023/09/18 00:51:03;;;;;;;5.85;2.15;;;;;;;16.10;100.00;92627.16;2099099;28;20020;-81
2023/09/18 00:52:18;;;;;;;2.55;1.60;;;;;;;16.08;100.00;92622.22;2099047;28;20024;-83
2023/09/18 00:53:32;;;;;;;4.40;1.83;;;;;;;16.13;100.00;92617.41;2106553;28;20023;-84
2023/09/18 00:54:51;;;;;;;3.60;1.90;;;;;;;16.14;100.00;92611.53;2105921;28;20440;-84
2023/09/18 00:56:04;;;;;;;5.53;1.85;;;;;;;15.95;100.00;92608.25;2106234;28;20032;-82
2023/09/18 00:57:15;;;;;;;2.35;1.50;;;;;;;15.84;100.00;92611.47;2099494;28;20035;-82
2023/09/18 00:58:27;;;;;;;2.42;1.80;;;;;;;15.86;100.00;92600.25;2091440;28;20374;-82
2023/09/18 00:59:36;;;;;;;4.65;1.80;;;;;;;15.85;100.00;92598.78;2100093;28;20067;-81
2023/09/18 01:00:46;;;;;;;3.90;1.90;;;;;;;15.86;100.00;92587.53;2098593;28;20071;-83
2023/09/18 01:01:59;;;;;;;3.78;1.83;;;;;;;15.91;100.00;92585.41;2096603;28;20506;-83
2023/09/18 01:03:08;;;;;;;4.53;1.52;;;;;;;15.86;100.00;92584.09;2094956;28;20025;-82
2023/09/18 01:04:25;;;;;;;5.47;2.08;;;;;;;15.87;100.00;92588.25;2091356;28;20029;-83
2023/09/18 01:05:39;;;;;;;5.47;1.88;;;;;;;15.94;100.00;92582.53;2091178;28;20025;-82
2023/09/18 01:06:48;;;;;;;5.32;1.73;;;;;;;16.03;100.00;92566.25;2098035;28;20111;-83
2023/09/18 01:07:51;;;;;;;4.68;2.10;;;;;;;15.97;100.00;92561.97;2098409;28;20101;-83
2023/09/18 01:08:54;;;;;;;3.95;1.92;;;;;;;16.12;100.00;92560.03;2097645;28;20039;-82
2023/09/18 01:09:55;;;;;;;6.55;1.90;;;;;;;16.24;100.00;92561.72;2097899;28;20461;-82
2023/09/18 01:11:19;;;;;;;5.55;1.77;;;;;;;16.15;100.00;92569.13;2097010;28;20048;-82
2023/09/18 01:12:52;;;;;;;2.00;1.65;;;;;;;16.08;100.00;92581.78;2087168;28;20077;-82
2023/09/18 01:14:12;;;;;;;5.75;1.88;;;;;;;16.11;100.00;92582.78;2093747;28;20020;-82
2023/09/18 01:15:24;;;;;;;6.28;3.90;;;;;;;16.07;100.00;92582.25;2102834;28;20032;-83
2023/09/18 01:16:37;;;;;;;3.13;1.58;;;;;;;15.99;100.00;92575.75;2095711;28;20040;-82
2023/09/18 01:17:38;;;;;;;4.13;1.73;;;;;;;16.18;100.00;92585.13;2100416;28;20440;-83
2023/09/18 01:18:48;;;;;;;3.85;1.80;;;;;;;16.17;100.00;92585.59;2105978;28;20111;-84
2023/09/18 01:19:49;;;;;;;;;;;;;;;16.18;100.00;92589.78;2098057;28;20025;-83
2023/09/18 01:20:50;;;;;;;3.28;1.63;;;;;;;16.17;100.00;92601.78;2089029;28;19915;-83
2023/09/18 01:21:51;;;;;;;4.10;1.98;;;;;;;16.13;100.00;92601.22;2097416;28;20028;-83
2023/09/18 01:22:52;;;;;;;5.18;1.92;;;;;;;16.04;100.00;92607.44;2105725;28;20066;-82
2023/09/18 01:23:53;;;;;;;4.13;1.80;;;;;;;15.92;100.00;92609.19;2097369;28;20047;-83
2023/09/18 01:24:54;;;;;;;1.80;1.70;;;;;;;15.92;100.00;92606.47;2112094;28;20027;-83
2023/09/18 01:25:55;;;;;;;4.30;1.50;;;;;;;16.02;100.00;92607.91;2105731;28;20032;-81
2023/09/18 01:26:58;;;;;;;2.40;2.20;;;;;;;16.05;100.00;92614.31;2090027;28;20025;-84
2023/09/18 01:27:59;;;;;;;4.03;1.70;;;;;;;16.08;100.00;92600.66;2097780;28;20048;-81
2023/09/18 01:29:00;;;;;;;3.08;1.80;;;;;;;16.21;100.00;92580.78;2113923;28;20058;-82
2023/09/18 01:30:02;;;;;;;5.93;1.70;;;;;;;16.11;100.00;92563.91;2097294;28;20020;-83
2023/09/18 01:31:04;;;;;;;3.05;1.63;;;;;;;16.09;100.00;92569.03;2080910;28;20482;-82
2023/09/18 01:32:06;;;;;;;5.97;1.70;;;;;;;16.09;100.00;92575.19;2089077;28;20401;-83
2023/09/18 01:33:09;;;;;;;4.25;1.60;;;;;;;16.06;100.00;92565.31;2085304;28;20059;-83
2023/09/18 01:34:10;;;;;;;4.72;1.50;;;;;;;16.11;100.00;92563.91;2093014;28;20024;-83
2023/09/18 01:35:13;;;;;;;2.80;1.60;;;;;;;16.18;100.00;92555.47;2089073;28;20373;-83
2023/09/18 01:36:16;;;;;;;4.60;1.50;;;;;;;16.25;100.00;92567.84;2084324;28;20032;-83
2023/09/18 01:37:20;;;;;;;3.38;1.58;;;;;;;16.35;100.00;92572.69;2098217;28;20028;-84
2023/09/18 01:38:23;;;;;;;2.17;1.50;;;;;;;16.30;100.00;92578.00;2097134;28;20017;-81
2023/09/18 01:39:30;;;;;;;2.35;1.90;;;;;;;16.33;100.00;92579.72;2090755;28;20104;-83
2023/09/18 01:40:31;;;;;;;3.05;1.70;;;;;;;16.29;100.00;92582.66;2098288;28;20023;-82
2023/09/18 01:41:33;;;;;;;2.90;1.73;;;;;;;16.22;100.00;92576.88;2103539;28;20039;-83
2023/09/18 01:42:35;;;;;;;3.15;1.85;;;;;;;16.24;100.00;92586.00;2097032;28;20029;-83
2023/09/18 01:43:36;;;;;;;3.83;1.52;;;;;;;16.23;100.00;92572.97;2097033;28;20104;-82
2023/09/18 01:44:38;;;;;;;2.92;1.67;;;;;;;16.22;100.00;92583.00;2108766;28;20083;-81
2023/09/18 01:45:39;;;;;;;2.90;1.70;;;;;;;16.18;100.00;92584.41;2097354;28;20163;-83
2023/09/18 01:46:41;;;;;;;2.92;1.45;;;;;;;16.13;100.00;92587.75;2094064;28;20043;-83
2023/09/18 01:47:43;;;;;;;3.28;1.67;;;;;;;16.09;100.00;92582.53;2097660;28;20028;-83
2023/09/18 01:48:47;;;;;;;4.75;1.90;;;;;;;16.06;100.00;92581.50;2097434;28;20043;-83
2023/09/18 01:49:48;;;;;;;4.10;1.67;;;;;;;16.25;100.00;92589.44;2089824;28;20033;-83
2023/09/18 01:50:49;;;;;;;4.50;1.80;;;;;;;16.33;100.00;92594.00;2097264;28;20020;-81
2023/09/18 01:51:50;;;;;;;4.53;1.77;;;;;;;16.25;100.00;92592.88;2088589;28;20029;-83
2023/09/18 01:52:51;;;;;;;3.08;1.73;;;;;;;16.19;100.00;92602.06;2083242;28;20048;-82
2023/09/18 01:53:53;;;;;;;6.80;1.73;;;;;;;16.05;100.00;92603.53;2097411;28;20039;-81
2023/09/18 01:54:54;;;;;;;3.78;1.77;;;;;;;16.00;100.00;92596.84;2105514;28;20837;-83
2023/09/18 01:56:01;;;;;;;1.83;1.27;;;;;;;15.98;100.00;92601.97;2097735;28;20073;-81
2023/09/18 01:57:03;;;;;;;3.53;1.42;;;;;;;15.96;100.00;92607.06;2105537;28;20085;-83
2023/09/18 01:58:04;;;;;;;3.35;1.95;;;;;;;16.13;100.00;92612.75;2093456;28;20024;-82
2023/09/18 01:59:05;;;;;;;5.13;1.80;;;;;;;16.13;100.00;92620.09;2089747;28;20021;-82
2023/09/18 02:00:09;;;;;;;2.67;1.60;;;;;;;16.07;100.00;92617.31;2103727;28;20031;-82
2023/09/18 02:01:10;;;;;;;3.40;1.55;;;;;;;16.09;100.00;92622.97;2094545;28;20362;-81
2023/09/18 02:02:12;;;;;;;6.03;1.98;;;;;;;16.19;100.00;92613.59;2088897;28;20167;-83
2023/09/18 02:03:13;;;;;;;5.38;1.88;;;;;;;16.21;100.00;92603.09;2089136;28;20468;-82
2023/09/18 02:04:14;;;;;;;2.67;1.42;;;;;;;16.14;100.00;92597.31;2105369;28;20785;-83
2023/09/18 02:05:15;;;;;;;3.75;1.75;;;;;;;16.07;100.00;92599.19;2097193;28;20551;-82
2023/09/18 02:06:15;;;;;;;4.05;1.92;;;;;;;16.02;100.00;92590.97;2100434;28;20054;-83
2023/09/18 02:07:16;;;;;;;5.20;1.80;;;;;;;16.13;100.00;92585.06;2097112;28;20050;-82
2023/09/18 02:08:17;;;;;;;8.15;2.28;;;;;;;16.07;100.00;92596.47;2103333;28;20058;-82
2023/09/18 02:09:19;;;;;;;5.50;1.80;;;;;;;15.93;100.00;92597.19;2105188;28;20024;-82
2023/09/18 02:10:19;;;;;;;3.25;1.80;;;;;;;15.91;100.00;92588.09;2097207;28;20082;-81
2023/09/18 02:11:21;;;;;;;5.72;1.52;;;;;;;15.79;100.00;92582.47;2104776;28;20777;-81
2023/09/18 02:12:22;;;;;;;3.15;1.55;;;;;;;15.89;100.00;92582.41;2105523;28;20457;-82
2023/09/18 02:13:23;;;;;;;3.47;2.35;;;;;;;15.85;100.00;92572.56;2095325;28;20055;-82
2023/09/18 02:14:24;;;;;;;7.18;1.75;;;;;;;15.73;100.00;92573.56;2089991;28;20028;-81
2023/09/18 02:15:25;;;;;;;9.05;2.13;;;;;;;15.64;100.00;92578.25;2097120;28;20238;-82
2023/09/18 02:16:26;;;;;;;3.67;1.75;;;;;;;15.65;100.00;92582.44;2098401;28;20021;-82
2023/09/18 02:17:28;;;;;;;4.20;1.73;;;;;;;15.70;100.00;92589.91;2097019;28;20032;-82
2023/09/18 02:18:30;;;;;;;6.32;2.00;;;;;;;15.62;100.00;92584.81;2113157;28;20024;-83
2023/09/18 02:19:31;;;;;;;3.40;1.58;;;;;;;15.66;100.00;92598.16;2096668;28;20116;-83
2023/09/18 02:20:40;;;;;;;5.38;1.90;;;;;;;15.56;100.00;92605.53;2092907;28;20100;-81
2023/09/18 02:23:09;;;;;;;5.60;1.80;;;;;;;15.28;100.00;92599.59;2133753;27;20175;-80
2023/09/18 02:24:11;;;;;;;4.50;1.80;;;;;;;15.29;100.00;92597.63;2121253;28;20043;-82
2023/09/18 02:25:12;;;;;;;6.43;1.73;;;;;;;15.34;100.00;92599.69;2104488;28;20433;-82
2023/09/18 02:26:13;;;;;;;4.85;1.80;;;;;;;15.31;100.00;92587.88;2120916;28;20031;-82
2023/09/18 02:27:15;;;;;;;4.30;1.63;;;;;;;15.29;100.00;92581.47;2104285;28;20028;-82
2023/09/18 02:28:16;;;;;;;5.22;1.73;;;;;;;15.39;100.00;92584.84;2112525;28;20030;-82
2023/09/18 02:29:17;;;;;;;5.05;1.73;;;;;;;15.37;100.00;92588.00;2120872;27;20082;-82
2023/09/18 02:30:19;;;;;;;8.63;1.90;;;;;;;15.39;100.00;92577.50;2121017;28;20023;-83
2023/09/18 02:31:21;;;;;;;4.03;1.75;;;;;;;15.36;100.00;92581.13;2116757;27;20345;-83
2023/09/18 02:32:23;;;;;;;4.70;2.03;;;;;;;15.35;100.00;92576.94;2121454;27;20028;-81
2023/09/18 02:33:24;;;;;;;10.35;2.05;;;;;;;15.39;100.00;92577.50;2121148;27;20590;-83
2023/09/18 02:34:25;;;;;;;2.45;1.50;;;;;;;15.38;100.00;92581.41;2121060;28;20023;-82
2023/09/18 02:35:26;;;;;;;1.55;1.45;;;;;;;15.33;100.00;92584.75;2112588;28;20024;-83
2023/09/18 02:36:31;;;;;;;2.95;1.80;;;;;;;15.32;100.00;92578.63;2112869;28;20088;-81
2023/09/18 02:37:32;;;;;;;4.20;1.70;;;;;;;15.43;100.00;92585.44;2113197;28;20028;-81
2023/09/18 02:38:33;;;;;;;4.25;1.70;;;;;;;15.39;100.00;92582.16;2104096;28;20067;-82
2023/09/18 02:39:35;;;;;;;3.25;1.80;;;;;;;15.43;100.00;92585.44;2107063;28;20381;-81
2023/09/18 02:40:36;;;;;;;3.05;1.83;;;;;;;15.28;100.00;92596.88;2118038;28;20028;-82
2023/09/18 02:41:38;;;;;;;6.07;1.77;;;;;;;15.37;100.00;92601.47;2111090;28;20068;-82
2023/09/18 02:42:39;;;;;;;2.80;1.52;;;;;;;15.38;100.00;92607.59;2119423;27;20027;-81
2023/09/18 02:43:40;;;;;;;2.33;1.40;;;;;;;15.49;100.00;92611.25;2123118;27;20031;-81
2023/09/18 02:44:41;;;;;;;4.00;1.80;;;;;;;15.44;100.00;92614.59;2107375;28;20497;-82
2023/09/18 02:45:42;;;;;;;3.10;1.73;;;;;;;15.45;100.00;92620.72;2103789;28;20393;-83
2023/09/18 02:46:44;;;;;;;4.03;2.10;;;;;;;15.42;100.00;92629.72;2127676;27;20403;-81
2023/09/18 02:47:45;;;;;;;4.63;1.52;;;;;;;15.41;100.00;92630.91;2113213;28;20020;-82
2023/09/18 02:48:46;;;;;;;4.07;1.63;;;;;;;15.37;100.00;92631.09;2104074;28;20028;-81
2023/09/18 02:49:47;;;;;;;4.50;2.33;;;;;;;15.44;100.00;92624.63;2111959;28;20488;-81
2023/09/18 02:50:48;;;;;;;6.70;1.85;;;;;;;15.50;100.00;92617.41;2112461;28;20023;-82
2023/09/18 02:51:50;;;;;;;4.80;1.90;;;;;;;15.54;100.00;92615.25;2104016;28;20645;-82
2023/09/18 02:52:51;;;;;;;5.95;2.10;;;;;;;15.49;100.00;92611.25;2110672;28;20356;-82
2023/09/18 02:53:52;;;;;;;4.20;1.38;;;;;;;15.53;100.00;92611.81;2112640;28;20028;-83
2023/09/18 02:54:53;;;;;;;2.72;1.67;;;;;;;15.53;100.00;92622.59;2109346;28;20130;-81
2023/09/18 02:55:56;;;;;;;2.90;1.60;;;;;;;15.57;100.00;92619.75;2112191;28;20027;-83
2023/09/18 02:56:57;;;;;;;3.65;1.88;;;;;;;15.64;100.00;92632.91;2104417;28;20035;-81
2023/09/18 02:57:59;;;;;;;5.10;1.80;;;;;;;15.57;100.00;92649.38;2107290;28;20023;-82
2023/09/18 02:59:00;;;;;;;4.47;1.98;;;;;;;15.44;100.00;92668.44;2121057;28;20072;-82
2023/09/18 03:00:01;;;;;;;2.83;1.70;;;;;;;15.49;100.00;92680.53;2110697;28;20079;-82
2023/09/18 03:01:08;;;;;;;5.75;1.73;;;;;;;15.64;100.00;92686.78;2105031;28;20031;-81
2023/09/18 03:02:09;;;;;;;9.95;2.78;;;;;;;15.88;100.00;92691.44;2113997;27;20023;-83
2023/09/18 03:03:10;;;;;;;9.57;2.00;;;;;;;15.89;100.00;92688.25;2120835;28;20114;-82
2023/09/18 03:04:12;;;;;;;7.03;1.63;;;;;;;15.98;100.00;92693.63;2104201;28;20112;-81
2023/09/18 03:05:14;;;;;;;7.45;2.30;;;;;;;16.04;100.00;92686.38;2112238;28;20024;-83
2023/09/18 03:06:15;;;;;;;6.60;2.08;;;;;;;16.10;100.00;92681.81;2101441;28;20028;-81
2023/09/18 03:07:17;;;;;;;7.38;2.10;;;;;;;16.31;100.00;92687.34;2104037;28;20032;-82
2023/09/18 03:08:18;;;;;;;13.80;2.88;;;;;;;16.38;100.00;92707.84;2101843;28;20074;-83
2023/09/18 03:09:19;;;;;;;9.98;2.47;;;;;;;17.06;100.00;92699.69;2103258;28;20147;-81
2023/09/18 03:10:20;;;;;;;10.40;2.72;;;;;;;17.18;100.00;92704.06;2104206;28;20043;-81
2023/09/18 03:11:21;;;;;;;13.13;3.25;;;;;;;17.41;100.00;92693.59;2107263;28;20028;-81
2023/09/18 03:12:22;;;;;;;8.27;2.83;;;;;;;17.33;100.00;92702.09;2104207;28;20032;-84
2023/09/18 03:13:25;;;;;;;7.07;2.58;;;;;;;17.18;100.00;92687.13;2105743;28;20031;-82
2023/09/18 03:14:26;;;;;;;10.88;2.95;;;;;;;17.12;100.00;92692.44;2114324;27;20020;-83
2023/09/18 03:15:30;;;;;;;13.85;3.30;;;;;;;17.15;100.00;92690.75;2112305;28;20549;-82
2023/09/18 03:16:33;;;;;;;16.15;3.20;;;;;;;16.93;100.00;92688.44;2104731;28;20373;-82
2023/09/18 03:17:35;;;;;;;11.00;3.45;;;;;;;17.14;100.00;92686.56;2096868;28;20035;-83
2023/09/18 03:18:36;;;;;;;15.52;3.35;;;;;;;17.35;100.00;92685.41;2104330;28;20043;-84
2023/09/18 03:19:37;;;;;;;16.50;3.65;;;;;;;17.42;100.00;92686.97;2107787;28;20074;-81
2023/09/18 03:20:39;;;;;;;15.35;3.28;;;;;;;17.33;100.00;92690.53;2087145;28;20029;-83
2023/09/18 03:21:41;;;;;;;13.07;3.08;;;;;;;17.23;100.00;92687.19;2109996;28;20130;-82
2023/09/18 03:22:42;;;;;;;9.90;3.03;;;;;;;17.09;100.00;92691.41;2111977;28;20055;-83
2023/09/18 03:23:43;;;;;;;11.27;3.28;;;;;;;17.13;100.00;92693.19;2103974;28;20127;-83
2023/09/18 03:24:44;;;;;;;8.48;2.33;;;;;;;17.32;100.00;92686.34;2100430;28;20505;-83
2023/09/18 03:25:47;;;;;;;16.00;3.72;;;;;;;17.43;100.00;92666.84;2095211;28;20024;-80
2023/09/18 03:26:49;;;;;;;10.80;2.40;;;;;;;17.33;100.00;92660.81;2087494;28;20039;-83
2023/09/18 03:27:53;;;;;;;10.80;2.65;;;;;;;17.19;100.00;92667.00;2096916;28;20092;-83
2023/09/18 03:28:54;;;;;;;11.00;2.55;;;;;;;17.25;100.00;92655.06;2096359;28;20036;-82
2023/09/18 03:29:55;;;;;;;11.35;3.08;;;;;;;17.25;100.00;92654.31;2095280;28;20024;-82
2023/09/18 03:30:58;;;;;;;6.88;1.83;;;;;;;17.26;100.00;92645.75;2103946;28;20032;-82
2023/09/18 03:31:59;;;;;;;6.80;2.08;;;;;;;17.14;100.00;92637.97;2104236;28;20052;-83
2023/09/18 03:33:00;;;;;;;9.98;2.42;;;;;;;17.20;100.00;92642.22;2109210;28;23193;-83
2023/09/18 03:34:01;;;;;;;6.40;1.85;;;;;;;17.05;100.00;92639.56;2092614;28;20035;-82
2023/09/18 03:35:02;;;;;;;9.00;2.72;;;;;;;16.96;100.00;92630.81;2089921;28;20024;-83
2023/09/18 03:36:04;;;;;;;10.52;2.85;;;;;;;17.02;100.00;92639.75;2098056;28;20021;-82
2023/09/18 03:37:13;;;;;;;7.35;1.70;;;;;;;17.16;100.00;92628.16;2098408;28;20022;-85
2023/09/18 03:38:15;;;;;;;5.40;1.95;;;;;;;17.06;100.00;92618.69;2099821;28;20102;-84
2023/09/18 03:39:17;;;;;;;5.28;1.50;;;;;;;17.11;100.00;92601.81;2094041;28;20093;-83
2023/09/18 03:40:19;;;;;;;5.95;1.77;;;;;;;17.36;100.00;92603.16;2098110;28;20027;-81
2023/09/18 03:41:20;;;;;;;6.57;1.83;;;;;;;17.29;100.00;92603.53;2100893;28;20046;-83
2023/09/18 03:42:22;;;;;;;5.88;1.50;;;;;;;17.17;100.00;92599.22;2089790;28;20082;-85
2023/09/18 03:43:23;;;;;;;8.10;1.90;;;;;;;17.21;100.00;92597.03;2096310;28;20027;-82
2023/09/18 03:44:24;;;;;;;6.28;1.60;;;;;;;17.17;100.00;92585.72;2097445;28;20058;-82
2023/09/18 03:45:26;;;;;;;7.05;2.03;;;;;;;16.98;100.00;92587.88;2081810;28;20128;-85
2023/09/18 03:46:28;;;;;;;4.43;1.40;;;;;;;16.82;100.00;92581.03;2094012;28;20051;-82
2023/09/18 03:47:30;;;;;;;7.03;1.55;;;;;;;16.89;100.00;92583.34;2098218;28;20468;-82
2023/09/18 03:48:37;;;;;;;4.97;2.03;;;;;;;17.14;100.00;92576.59;2090243;28;20413;-83
2023/09/18 03:49:38;;;;;;;9.35;3.03;;;;;;;17.05;100.00;92563.94;2099064;28;20109;-82
2023/09/18 03:50:39;;;;;;;4.60;1.25;;;;;;;17.08;100.00;92568.41;2098246;28;20096;-83
2023/09/18 03:51:44;;;;;;;3.50;1.17;;;;;;;17.15;100.00;92580.75;2101157;28;20453;-82
2023/09/18 03:52:45;;;;;;;3.28;1.20;;;;;;;17.09;100.00;92572.59;2098384;28;20021;-81
2023/09/18 03:53:48;;;;;;;5.47;1.52;;;;;;;17.12;100.00;92562.81;2098015;28;20492;-84
2023/09/18 03:54:49;;;;;;;5.85;1.40;;;;;;;17.06;100.00;92572.78;2106490;28;20634;-84
2023/09/18 03:55:50;;;;;;;3.28;1.42;;;;;;;16.92;100.00;92560.81;2114772;28;20019;-84
2023/09/18 03:56:51;;;;;;;3.55;1.15;;;;;;;17.01;100.00;92573.44;2114897;28;20088;-84
2023/09/18 03:57:52;;;;;;;3.95;1.25;;;;;;;16.98;100.00;92567.03;2098025;28;20025;-81
2023/09/18 03:58:53;;;;;;;4.90;0.93;;;;;;;16.91;100.00;92564.72;2089816;28;20029;-83
2023/09/18 03:59:54;;;;;;;4.28;1.15;;;;;;;16.82;100.00;92579.09;2097750;28;20028;-83
2023/09/18 04:00:55;;;;;;;7.18;1.23;;;;;;;16.79;100.00;92580.00;2097938;28;20025;-85
2023/09/18 04:01:56;;;;;;;5.15;1.00;;;;;;;16.95;100.00;92565.28;2088847;28;20036;-81
2023/09/18 04:02:57;;;;;;;4.43;1.10;;;;;;;17.08;100.00;92573.81;2091893;28;20109;-81
2023/09/18 04:03:58;;;;;;;5.47;1.30;;;;;;;17.01;100.00;92571.50;2106447;28;20024;-84
2023/09/18 04:05:01;;;;;;;5.88;1.30;;;;;;;17.20;100.00;92563.88;2106270;28;20027;-82
2023/09/18 04:06:03;;;;;;;4.57;1.02;;;;;;;17.09;100.00;92558.34;2098064;28;20023;-82
2023/09/18 04:07:09;;;;;;;6.20;1.20;;;;;;;17.26;100.00;92551.22;2098179;28;20134;-81
2023/09/18 04:08:11;;;;;;;3.88;1.10;;;;;;;17.35;100.00;92544.94;2091217;28;20021;-83
2023/09/18 04:09:12;;;;;;;6.13;1.10;;;;;;;17.37;100.00;92550.59;2086112;28;20386;-84
2023/09/18 04:10:22;;;;;;;4.38;1.30;;;;;;;17.39;100.00;92537.38;2088555;28;20437;-84
2023/09/18 04:11:26;;;;;;;4.18;0.93;;;;;;;17.50;100.00;92537.50;2091030;28;20025;-84
2023/09/18 04:12:26;;;;;;;5.75;1.30;;;;;;;17.47;100.00;92535.75;2082358;28;20063;-83
2023/09/18 04:13:27;;;;;;;5.88;1.10;;;;;;;17.25;100.00;92524.66;2089685;28;20475;-85
2023/09/18 04:14:28;;;;;;;3.28;0.90;;;;;;;17.04;100.00;92530.06;2089739;28;20371;-84
2023/09/18 04:15:32;;;;;;;4.63;1.10;;;;;;;16.86;100.00;92522.94;2081704;28;20022;-82
2023/09/18 04:16:37;;;;;;;4.88;1.05;;;;;;;16.83;100.00;92515.78;2094823;28;20083;-82
2023/09/18 04:17:38;;;;;;;3.70;1.00;;;;;;;16.72;100.00;92526.41;2090144;28;20060;-82
2023/09/18 04:18:46;;;;;;;3.28;1.20;;;;;;;16.89;100.00;92532.06;2089375;28;20028;-84
2023/09/18 04:19:49;;;;;;;3.45;1.10;;;;;;;16.86;100.00;92530.31;2095568;28;20122;-84
2023/09/18 04:20:51;;;;;;;4.95;1.00;;;;;;;16.95;100.00;92537.53;2098138;28;20024;-82
2023/09/18 04:21:53;;;;;;;2.38;0.88;;;;;;;17.06;100.00;92534.97;2097993;28;20016;-84
2023/09/18 04:23:18;;;;;;;4.28;0.90;;;;;;;17.13;100.00;92544.66;2087468;28;20124;-82
2023/09/18 04:24:19;;;;;;;2.22;1.30;;;;;;;17.11;100.00;92548.56;2096708;28;20035;-81
2023/09/18 04:25:22;;;;;;;2.85;1.00;;;;;;;16.96;100.00;92542.47;2097848;28;20424;-82
2023/09/18 04:26:30;;;;;;;4.63;1.08;;;;;;;17.08;100.00;92537.97;2098088;28;20067;-83
2023/09/18 04:27:32;;;;;;;7.25;1.00;;;;;;;16.91;100.00;92537.75;2107174;28;20020;-83
2023/09/18 04:28:34;;;;;;;2.65;0.80;;;;;;;16.85;100.00;92539.59;2106081;28;20765;-83
2023/09/18 04:29:35;;;;;;;5.20;1.08;;;;;;;16.83;100.00;92539.34;2106190;27;20028;-82
2023/09/18 04:30:36;;;;;;;4.93;0.95;;;;;;;16.65;100.00;92545.69;2106014;28;20028;-84
2023/09/18 04:31:40;;;;;;;5.15;0.80;;;;;;;16.65;100.00;92550.34;2089446;28;20037;-83
2023/09/18 04:32:44;;;;;;;3.47;0.80;;;;;;;16.71;100.00;92553.84;2098710;28;20020;-84
2023/09/18 04:33:45;;;;;;;6.10;0.80;;;;;;;17.00;100.00;92555.78;2098131;28;20024;-81
2023/09/18 04:34:47;;;;;;;2.03;0.70;;;;;;;17.00;100.00;92561.16;2089476;28;20671;-83
2023/09/18 04:35:48;;;;;;;2.17;0.80;;;;;;;16.91;100.00;92561.28;2089681;28;20036;-85
2023/09/18 04:36:50;;;;;;;2.35;0.80;;;;;;;16.84;100.00;92560.47;2081379;28;20470;-81
2023/09/18 04:37:56;;;;;;;2.70;0.80;;;;;;;16.77;100.00;92566.25;2082935;28;20037;-83
2023/09/18 04:38:58;;;;;;;2.03;1.00;;;;;;;16.75;100.00;92565.97;2091017;28;20017;-82
2023/09/18 04:40:09;;;;;;;2.53;0.75;;;;;;;16.81;100.00;92571.44;2097508;28;20028;-83
2023/09/18 04:41:11;;;;;;;3.10;0.80;;;;;;;16.92;100.00;92558.13;2097416;28;20111;-83
2023/09/18 04:42:12;;;;;;;5.22;1.10;;;;;;;16.93;100.00;92562.28;2089449;28;20025;-81
2023/09/18 04:43:13;;;;;;;4.22;0.80;;;;;;;16.88;100.00;92551.44;2089330;28;20092;-82
2023/09/18 04:44:15;;;;;;;1.10;0.68;;;;;;;16.79;100.00;92552.28;2097288;28;20016;-84
2023/09/18 04:45:16;;;;;;;2.60;1.23;;;;;;;16.82;100.00;92551.34;2097380;28;20088;-82
2023/09/18 04:46:18;;;;;;;2.53;1.20;;;;;;;16.81;100.00;92556.00;2094652;28;20094;-83
2023/09/18 04:47:19;;;;;;;2.47;1.33;;;;;;;16.81;100.00;92557.94;2093992;28;20136;-82
2023/09/18 04:48:20;;;;;;;2.08;1.02;;;;;;;16.67;100.00;92559.44;2114486;28;20055;-84
2023/09/18 04:49:21;;;;;;;2.60;0.80;;;;;;;16.61;100.00;92567.44;2097584;28;20032;-83
2023/09/18 04:50:22;;;;;;;3.50;1.00;;;;;;;16.69;100.00;92575.91;2090749;28;20032;-80
2023/09/18 04:51:23;;;;;;;2.05;0.68;;;;;;;16.79;100.00;92574.63;2097439;28;20078;-82
2023/09/18 04:52:24;;;;;;;2.00;0.60;;;;;;;16.90;100.00;92567.88;2097703;28;20498;-84
2023/09/18 04:53:27;;;;;;;3.88;0.70;;;;;;;16.89;100.00;92561.75;2102598;28;20024;-83
2023/09/18 04:54:28;;;;;;;3.33;0.75;;;;;;;16.84;100.00;92559.72;2105965;28;20643;-82
2023/09/18 04:55:30;;;;;;;2.92;0.80;;;;;;;17.00;100.00;92556.50;2105821;28;20028;-80
2023/09/18 04:56:32;;;;;;;2.25;0.45;;;;;;;17.41;100.00;92553.09;2106313;28;20024;-82
2023/09/18 04:57:34;;;;;;;2.45;0.60;;;;;;;17.55;100.00;92554.97;2105919;28;20089;-83
2023/09/18 04:58:37;;;;;;;3.92;0.60;;;;;;;17.53;100.00;92557.44;2097496;28;20031;-82
2023/09/18 04:59:38;;;;;;;5.85;0.70;;;;;;;17.83;100.00;92547.22;2104632;27;20431;-82
2023/09/18 05:00:39;;;;;;;3.53;0.70;;;;;;;17.91;100.00;92548.31;2102671;28;20124;-83
2023/09/18 05:01:40;;;;;;;2.30;0.70;;;;;;;18.01;100.00;92546.19;2095531;28;20020;-82